Time;durP1;ratioP1;P1;durP2;ratioP2;P2;SDS_P1;SDS_P2;PMS_P1;PMS_P2;Temp;Humidity;BMP_temperature;BMP_pressure;BME280_temperature;BME280_humidity;BME280_pressure;Samples;Min_cycle;Max_cycle;Signal;HPM_P1;HPM_P2
2021/03/11 00:01:06;;;;;;;;;;;5.90;99.90;;;;;;4998146;28;19914;-68
2021/03/11 00:03:32;;;;;;;;;;;5.80;99.90;;;;;;5000936;28;20327;-69
2021/03/11 00:05:57;;;;;;;;;;;5.90;99.90;;;;;;4999726;28;19978;-69
2021/03/11 00:08:23;;;;;;;;;;;5.50;99.90;;;;;;4998009;28;20483;-69
2021/03/11 00:10:48;;;;;;;;;;;5.30;99.90;;;;;;4997153;28;19921;-68
2021/03/11 00:13:14;;;;;;;;;;;5.30;99.90;;;;;;5000074;28;20004;-66
2021/03/11 00:15:40;;;;;;;;;;;5.40;99.90;;;;;;5000095;28;19910;-68
2021/03/11 00:18:06;;;;;;;;;;;5.40;99.90;;;;;;4999813;28;19952;-68
2021/03/11 00:20:32;;;;;;;;;;;5.30;99.90;;;;;;4998170;28;20325;-69
2021/03/11 00:22:58;;;;;;;;;;;5.10;99.90;;;;;;4998117;28;19929;-68
2021/03/11 00:25:24;;;;;;;;;;;5.20;99.90;;;;;;5001073;28;19913;-68
2021/03/11 00:27:50;;;;;;;;;;;5.30;99.90;;;;;;4998081;28;19918;-67
2021/03/11 00:30:17;;;;;;;;;;;5.40;99.90;;;;;;4998355;28;19925;-68
2021/03/11 00:32:42;;;;;;;;;;;5.50;99.90;;;;;;5000242;28;19918;-67
2021/03/11 00:35:09;;;;;;;;;;;5.50;99.90;;;;;;4993076;28;20394;-67
2021/03/11 00:37:35;;;;;;;;;;;5.60;99.90;;;;;;5000372;28;19960;-67
2021/03/11 00:40:00;;;;;;;;;;;5.60;99.90;;;;;;4998992;28;20322;-68
2021/03/11 00:42:26;;;;;;;;;;;5.70;99.90;;;;;;4999519;28;20355;-67
2021/03/11 00:44:52;;;;;;;;;;;5.60;99.90;;;;;;4997697;28;19965;-67
2021/03/11 00:47:17;;;;;;;;;;;5.60;99.90;;;;;;4999967;28;20294;-68
2021/03/11 00:49:43;;;;;;;;;;;5.60;99.90;;;;;;4999798;28;19944;-67
2021/03/11 00:52:09;;;;;;;;;;;5.60;99.90;;;;;;4996329;28;19921;-67
2021/03/11 00:54:34;;;;;;;;;;;5.70;99.90;;;;;;4996722;28;20820;-66
2021/03/11 00:57:00;;;;;;;;;;;5.70;99.90;;;;;;4996570;28;20251;-69
2021/03/11 00:59:25;;;;;;;;;;;5.70;99.90;;;;;;4998751;28;20373;-69
2021/03/11 01:01:51;;;;;;;;;;;5.70;99.90;;;;;;4998868;28;19917;-67
2021/03/11 01:04:16;;;;;;;;;;;5.80;99.90;;;;;;4996139;28;19913;-69
2021/03/11 01:06:41;;;;;;;;;;;5.80;99.90;;;;;;4995816;28;20009;-68
2021/03/11 01:09:07;;;;;;;;;;;5.80;99.90;;;;;;5003370;28;20020;-68
2021/03/11 01:11:32;;;;;;;;;;;5.80;99.90;;;;;;4995389;28;19914;-67
2021/03/11 01:13:58;;;;;;;;;;;5.90;99.90;;;;;;4996269;28;19933;-68
2021/03/11 01:16:24;;;;;;;;;;;5.90;99.90;;;;;;4999954;28;20017;-67
2021/03/11 01:18:49;;;;;;;;;;;5.90;99.90;;;;;;5002915;28;19914;-65
2021/03/11 01:21:15;;;;;;;;;;;5.80;99.90;;;;;;4999060;28;19921;-69
2021/03/11 01:23:40;;;;;;;;;;;6.00;99.90;;;;;;5000055;28;19914;-68
2021/03/11 01:26:06;;;;;;;;;;;5.90;99.90;;;;;;5000048;28;19922;-67
2021/03/11 01:28:31;;;;;;;;;;;6.00;99.90;;;;;;5007930;28;20327;-67
2021/03/11 01:30:57;;;;;;;;;;;5.90;99.90;;;;;;5001374;28;19918;-68
2021/03/11 01:33:22;;;;;;;;;;;6.00;99.90;;;;;;4999107;28;19921;-67
2021/03/11 01:35:48;;;;;;;;;;;6.10;99.90;;;;;;4999858;28;19972;-67
2021/03/11 01:38:14;;;;;;;;;;;6.10;99.90;;;;;;5001525;28;20369;-68
2021/03/11 01:40:39;;;;;;;;;;;6.10;99.90;;;;;;5002773;28;20009;-68
2021/03/11 01:43:05;;;;;;;;;;;6.10;99.90;;;;;;4999862;28;19914;-69
2021/03/11 01:45:30;;;;;;;;;;;6.00;99.90;;;;;;4999382;28;19913;-67
2021/03/11 01:47:56;;;;;;;;;;;5.90;99.90;;;;;;5000902;28;20358;-68
2021/03/11 01:50:21;;;;;;;;;;;5.90;99.90;;;;;;4999700;28;19914;-68
2021/03/11 01:52:47;;;;;;;;;;;5.90;99.90;;;;;;4997605;28;19918;-68
2021/03/11 01:55:13;;;;;;;;;;;5.90;99.90;;;;;;5002552;28;20311;-68
2021/03/11 01:57:39;;;;;;;;;;;5.90;99.90;;;;;;5002142;28;20004;-67
2021/03/11 02:00:09;;;;;;;;;;;5.90;99.90;;;;;;5001004;28;20008;-67
2021/03/11 02:02:35;;;;;;;;;;;5.90;99.90;;;;;;4997329;28;20411;-67
2021/03/11 02:05:04;;;;;;;;;;;6.00;99.90;;;;;;4998498;28;20028;-68
2021/03/11 02:07:29;;;;;;;;;;;6.00;99.90;;;;;;5002141;28;20405;-68
2021/03/11 02:09:55;;;;;;;;;;;6.00;99.90;;;;;;5004507;28;19913;-67
2021/03/11 02:12:38;;;;;;;;;;;6.00;99.90;;;;;;4995157;28;19918;-68
2021/03/11 02:15:21;;;;;;;;;;;6.10;99.90;;;;;;4999938;28;20535;-68
2021/03/11 02:17:59;;;;;;;;;;;6.10;99.90;;;;;;4998855;28;20004;-68
2021/03/11 02:20:37;;;;;;;;;;;6.10;99.90;;;;;;4998805;28;19921;-66
2021/03/11 02:23:09;;;;;;;;;;;6.20;99.90;;;;;;4999603;28;19921;-67
2021/03/11 02:25:42;;;;;;;;;;;6.20;99.90;;;;;;5002141;28;20008;-67
2021/03/11 02:28:26;;;;;;;;;;;6.20;99.90;;;;;;5003202;28;20401;-66
2021/03/11 02:30:54;;;;;;;;;;;6.10;99.90;;;;;;4997540;28;19914;-68
2021/03/11 02:33:20;;;;;;;;;;;6.00;99.90;;;;;;5000791;28;19937;-68
2021/03/11 02:35:46;;;;;;;;;;;6.00;99.90;;;;;;5001955;28;20000;-67
2021/03/11 02:38:13;;;;;;;;;;;6.00;99.90;;;;;;4998695;28;20092;-68
2021/03/11 02:40:39;;;;;;;;;;;5.90;99.90;;;;;;4998014;28;19922;-67
2021/03/11 02:43:08;;;;;;;;;;;5.90;99.90;;;;;;4998925;28;19921;-65
2021/03/11 02:45:34;;;;;;;;;;;5.80;99.90;;;;;;4998784;28;19914;-68
2021/03/11 02:48:01;;;;;;;;;;;5.70;99.90;;;;;;4999211;28;20367;-67
2021/03/11 02:50:27;;;;;;;;;;;5.50;99.90;;;;;;5000806;28;20025;-66
2021/03/11 02:52:53;;;;;;;;;;;5.50;99.90;;;;;;4994114;28;20171;-69
2021/03/11 02:55:18;;;;;;;;;;;5.50;99.90;;;;;;4994323;28;20012;-68
2021/03/11 02:57:45;;;;;;;;;;;5.50;99.90;;;;;;5001149;28;20589;-68
2021/03/11 03:00:11;;;;;;;;;;;5.60;99.90;;;;;;4998661;28;20051;-68
2021/03/11 03:02:40;;;;;;;;;;;5.70;99.90;;;;;;4996804;28;20286;-68
2021/03/11 03:05:05;;;;;;;;;;;5.80;99.90;;;;;;4999090;28;20351;-67
2021/03/11 03:07:31;;;;;;;;;;;5.90;99.90;;;;;;5003384;28;19914;-68
2021/03/11 03:09:57;;;;;;;;;;;5.90;99.90;;;;;;4998782;28;19913;-68
2021/03/11 03:12:23;;;;;;;;;;;5.90;99.90;;;;;;5003051;28;20349;-68
2021/03/11 03:14:49;;;;;;;;;;;6.00;99.90;;;;;;4997189;28;19914;-68
2021/03/11 03:17:16;;;;;;;;;;;6.00;99.90;;;;;;5000925;28;19914;-69
2021/03/11 03:19:42;;;;;;;;;;;6.10;99.90;;;;;;5002050;28;19922;-68
2021/03/11 03:22:07;;;;;;;;;;;6.20;99.90;;;;;;4997716;28;19917;-68
2021/03/11 03:24:34;;;;;;;;;;;6.20;99.90;;;;;;4997970;28;20492;-68
2021/03/11 03:26:59;;;;;;;;;;;6.20;99.90;;;;;;4996094;28;19921;-68
2021/03/11 03:29:25;;;;;;;;;;;6.20;99.90;;;;;;4995467;28;19937;-68
2021/03/11 03:31:51;;;;;;;;;;;6.20;99.90;;;;;;4999634;28;20337;-68
2021/03/11 03:34:16;;;;;;;;;;;6.20;99.90;;;;;;4997826;28;19914;-67
2021/03/11 03:36:42;;;;;;;;;;;6.10;99.90;;;;;;4997467;28;19913;-69
2021/03/11 03:39:08;;;;;;;;;;;6.10;99.90;;;;;;4999433;28;19933;-68
2021/03/11 03:41:34;;;;;;;;;;;6.10;99.90;;;;;;4998945;28;20279;-68
2021/03/11 03:44:00;;;;;;;;;;;6.10;99.90;;;;;;4999052;28;20677;-69
2021/03/11 03:46:27;;;;;;;;;;;6.10;99.90;;;;;;4998582;28;19922;-67
2021/03/11 03:49:00;;;;;;;;;;;6.10;99.90;;;;;;4997312;28;20352;-68
2021/03/11 03:51:32;;;;;;;;;;;6.20;99.90;;;;;;4995974;28;19928;-68
2021/03/11 03:53:57;;;;;;;;;;;6.20;99.90;;;;;;4997594;28;20405;-68
2021/03/11 03:56:23;;;;;;;;;;;6.30;99.90;;;;;;5000090;28;19999;-69
2021/03/11 03:58:49;;;;;;;;;;;6.20;99.90;;;;;;5000151;28;19964;-68
2021/03/11 04:01:15;;;;;;;;;;;6.30;99.90;;;;;;4996258;28;19917;-69
2021/03/11 04:03:41;;;;;;;;;;;6.30;99.90;;;;;;4996864;28;19957;-68
2021/03/11 04:06:09;;;;;;;;;;;6.30;99.90;;;;;;4998839;28;20339;-67
2021/03/11 04:08:35;;;;;;;;;;;6.30;99.90;;;;;;5001422;28;20071;-68
2021/03/11 04:11:01;;;;;;;;;;;6.30;99.90;;;;;;4998174;28;19975;-68
2021/03/11 04:13:28;;;;;;;;;;;6.30;99.90;;;;;;4996031;28;19925;-67
2021/03/11 04:15:54;;;;;;;;;;;6.30;99.90;;;;;;4996325;28;19920;-67
2021/03/11 04:18:20;;;;;;;;;;;6.40;99.90;;;;;;5000175;28;19992;-68
2021/03/11 04:20:46;;;;;;;;;;;6.40;99.90;;;;;;4999740;28;20411;-68
2021/03/11 04:23:12;;;;;;;;;;;6.40;99.90;;;;;;4996922;28;19968;-66
2021/03/11 04:25:37;;;;;;;;;;;6.40;99.90;;;;;;4997280;28;19972;-68
2021/03/11 04:28:03;;;;;;;;;;;6.50;99.90;;;;;;5003058;28;19968;-68
2021/03/11 04:30:29;;;;;;;;;;;6.50;99.90;;;;;;4995685;28;20201;-68
2021/03/11 04:32:55;;;;;;;;;;;6.50;99.90;;;;;;4996535;28;19957;-65
2021/03/11 04:35:20;;;;;;;;;;;6.50;99.90;;;;;;4999747;28;19949;-67
2021/03/11 04:37:46;;;;;;;;;;;6.40;99.90;;;;;;4999994;28;19976;-67
2021/03/11 04:40:12;;;;;;;;;;;6.50;99.90;;;;;;4998015;28;19914;-67
2021/03/11 04:42:38;;;;;;;;;;;6.50;99.90;;;;;;4999445;28;19923;-68
2021/03/11 04:45:04;;;;;;;;;;;6.50;99.90;;;;;;4998097;28;19918;-66
2021/03/11 04:47:30;;;;;;;;;;;6.60;99.90;;;;;;4996599;28;19914;-68
2021/03/11 04:49:58;;;;;;;;;;;6.50;99.90;;;;;;5003668;28;19972;-67
2021/03/11 04:52:24;;;;;;;;;;;6.60;99.90;;;;;;4998679;28;19956;-68
2021/03/11 04:54:50;;;;;;;;;;;6.60;99.90;;;;;;5000746;28;20312;-67
2021/03/11 04:57:15;;;;;;;;;;;6.70;99.90;;;;;;5002969;28;19921;-68
2021/03/11 04:59:41;;;;;;;;;;;6.60;99.90;;;;;;5002574;28;19921;-68
2021/03/11 05:02:07;;;;;;;;;;;6.70;99.90;;;;;;5000057;28;19989;-68
2021/03/11 05:04:33;;;;;;;;;;;6.60;99.90;;;;;;5000192;28;19918;-69
2021/03/11 05:06:59;;;;;;;;;;;6.60;99.90;;;;;;5004768;28;20340;-68
2021/03/11 05:09:24;;;;;;;;;;;6.60;99.90;;;;;;5003179;28;19913;-67
2021/03/11 05:11:49;;;;;;;;;;;6.50;99.90;;;;;;5002101;28;19913;-67
2021/03/11 05:14:15;;;;;;;;;;;6.50;99.90;;;;;;4999190;28;20383;-69
2021/03/11 05:16:40;;;;;;;;;;;6.50;99.90;;;;;;4999660;28;19922;-66
2021/03/11 05:19:06;;;;;;;;;;;6.50;99.90;;;;;;5000755;28;19920;-68
2021/03/11 05:21:32;;;;;;;;;;;6.50;99.90;;;;;;4997371;28;20008;-68
2021/03/11 05:23:58;;;;;;;;;;;6.60;99.90;;;;;;5002961;28;19940;-68
2021/03/11 05:26:23;;;;;;;;;;;6.70;99.90;;;;;;4999825;28;20016;-67
2021/03/11 05:28:49;;;;;;;;;;;6.70;99.90;;;;;;5000512;28;20104;-69
2021/03/11 05:31:14;;;;;;;;;;;6.70;99.90;;;;;;5006451;28;20007;-68
2021/03/11 05:33:40;;;;;;;;;;;6.80;99.90;;;;;;4999980;28;19939;-67
2021/03/11 05:36:05;;;;;;;;;;;6.80;99.90;;;;;;5006669;28;19917;-67
2021/03/11 05:38:31;;;;;;;;;;;6.90;99.90;;;;;;5005307;28;19914;-68
2021/03/11 05:40:57;;;;;;;;;;;6.90;99.90;;;;;;4997799;28;19914;-68
2021/03/11 05:43:23;;;;;;;;;;;7.00;99.90;;;;;;5008678;28;20061;-68
2021/03/11 05:45:48;;;;;;;;;;;7.00;99.90;;;;;;5001689;28;20401;-68
2021/03/11 05:48:15;;;;;;;;;;;7.10;99.90;;;;;;4998504;28;19922;-68
2021/03/11 05:50:41;;;;;;;;;;;7.10;99.90;;;;;;5004210;28;20035;-68
2021/03/11 05:53:07;;;;;;;;;;;7.10;99.90;;;;;;5004394;28;19921;-69
2021/03/11 05:55:33;;;;;;;;;;;7.10;99.90;;;;;;4993995;28;20281;-69
2021/03/11 05:58:00;;;;;;;;;;;7.00;99.90;;;;;;5003208;28;19972;-68
2021/03/11 06:00:25;;;;;;;;;;;7.10;99.90;;;;;;4998031;28;19922;-67
2021/03/11 06:02:58;;;;;;;;;;;7.00;99.90;;;;;;4992574;28;19984;-68
2021/03/11 06:05:25;;;;;;;;;;;6.90;99.90;;;;;;4996149;28;19933;-69
2021/03/11 06:07:50;;;;;;;;;;;7.00;99.90;;;;;;4998629;28;19917;-67
2021/03/11 06:10:17;;;;;;;;;;;7.00;99.90;;;;;;5005872;28;19921;-68
2021/03/11 06:12:44;;;;;;;;;;;7.00;99.90;;;;;;5001862;28;20551;-72
2021/03/11 06:15:12;;;;;;;;;;;7.00;99.90;;;;;;5007612;28;19976;-68
2021/03/11 06:17:39;;;;;;;;;;;7.00;99.90;;;;;;4999869;28;20279;-68
2021/03/11 06:20:06;;;;;;;;;;;7.00;99.90;;;;;;4997540;28;20401;-68
2021/03/11 06:22:31;;;;;;;;;;;7.00;99.90;;;;;;5000917;28;20363;-69
2021/03/11 06:24:57;;;;;;;;;;;7.10;99.90;;;;;;5006494;28;19914;-68
2021/03/11 06:27:22;;;;;;;;;;;7.10;99.90;;;;;;4997965;28;19914;-68
2021/03/11 06:29:48;;;;;;;;;;;7.30;99.90;;;;;;4992044;28;20440;-68
2021/03/11 06:32:14;;;;;;;;;;;7.30;99.90;;;;;;5000534;28;19937;-68
2021/03/11 06:34:43;;;;;;;;;;;7.30;99.90;;;;;;5001588;28;20361;-68
2021/03/11 06:37:12;;;;;;;;;;;7.50;99.90;;;;;;5000006;28;20000;-68
2021/03/11 06:39:38;;;;;;;;;;;7.50;99.90;;;;;;5002472;28;19944;-66
2021/03/11 06:42:04;;;;;;;;;;;7.60;99.90;;;;;;5019228;28;19913;-69
2021/03/11 06:44:38;;;;;;;;;;;7.60;99.90;;;;;;5026851;28;19996;-68
2021/03/11 06:47:05;;;;;;;;;;;7.80;99.90;;;;;;5008524;28;20037;-69
2021/03/11 06:49:30;;;;;;;;;;;7.80;99.90;;;;;;5003059;28;20004;-69
2021/03/11 06:52:09;;;;;;;;;;;7.90;99.90;;;;;;4993586;28;20459;-68
2021/03/11 06:54:51;;;;;;;;;;;8.00;99.90;;;;;;4988894;28;19921;-70
2021/03/11 06:57:30;;;;;;;;;;;8.00;99.90;;;;;;4988788;28;19914;-68
2021/03/11 06:59:57;;;;;;;;;;;8.10;99.90;;;;;;4987657;28;19914;-67
2021/03/11 07:02:23;;;;;;;;;;;8.10;99.90;;;;;;4988179;28;20018;-67
2021/03/11 07:04:49;;;;;;;;;;;8.10;99.90;;;;;;4987862;28;20398;-69
2021/03/11 07:07:15;;;;;;;;;;;8.10;99.90;;;;;;4987975;28;19910;-68
2021/03/11 07:09:41;;;;;;;;;;;8.20;99.90;;;;;;4989176;28;20309;-68
2021/03/11 07:12:07;;;;;;;;;;;8.20;99.90;;;;;;4986895;28;20076;-67
2021/03/11 07:14:32;;;;;;;;;;;8.20;99.90;;;;;;4987841;28;19914;-67
2021/03/11 07:17:16;;;;;;;;;;;8.20;99.90;;;;;;4988076;28;20360;-68
2021/03/11 07:19:41;;;;;;;;;;;8.10;99.90;;;;;;4987661;28;20436;-67
2021/03/11 07:22:15;;;;;;;;;;;8.20;99.90;;;;;;4987830;28;20025;-66
2021/03/11 07:24:41;;;;;;;;;;;8.20;99.90;;;;;;4988409;28;20063;-67
2021/03/11 07:27:07;;;;;;;;;;;8.30;99.90;;;;;;4989392;28;20012;-66
2021/03/11 07:29:35;;;;;;;;;;;8.20;99.90;;;;;;5007365;28;19914;-67
2021/03/11 07:32:02;;;;;;;;;;;8.30;99.90;;;;;;5006468;28;20355;-67
2021/03/11 07:34:29;;;;;;;;;;;8.30;99.90;;;;;;5008336;28;20004;-68
2021/03/11 07:36:58;;;;;;;;;;;8.30;99.90;;;;;;5007976;28;19909;-68
2021/03/11 07:39:30;;;;;;;;;;;8.30;99.90;;;;;;5007252;28;19992;-68
2021/03/11 07:41:57;;;;;;;;;;;8.30;99.90;;;;;;5006132;28;19913;-68
2021/03/11 07:44:23;;;;;;;;;;;8.30;99.90;;;;;;5004949;28;19920;-67
2021/03/11 07:46:49;;;;;;;;;;;8.30;99.90;;;;;;5007597;28;19914;-67
2021/03/11 07:49:14;;;;;;;;;;;8.30;99.90;;;;;;5008953;28;20358;-69
2021/03/11 07:51:40;;;;;;;;;;;8.30;99.90;;;;;;5007925;28;19982;-66
2021/03/11 07:54:06;;;;;;;;;;;8.40;99.90;;;;;;5009287;28;20279;-67
2021/03/11 07:56:32;;;;;;;;;;;8.40;99.90;;;;;;5008887;28;19964;-67
2021/03/11 07:59:07;;;;;;;;;;;8.40;99.90;;;;;;5008132;28;19913;-68
2021/03/11 08:01:35;;;;;;;;;;;8.40;99.90;;;;;;5007503;28;19925;-66
2021/03/11 08:04:01;;;;;;;;;;;8.50;99.90;;;;;;5008900;28;19909;-67
2021/03/11 08:06:26;;;;;;;;;;;8.50;99.90;;;;;;5008198;28;19999;-68
2021/03/11 08:08:52;;;;;;;;;;;8.50;99.90;;;;;;5008905;28;19922;-65
2021/03/11 08:11:30;;;;;;;;;;;8.50;99.90;;;;;;5007629;28;19909;-66
2021/03/11 08:14:15;;;;;;;;;;;8.50;99.90;;;;;;5007892;28;19983;-67
2021/03/11 08:16:40;;;;;;;;;;;8.60;99.90;;;;;;5008800;28;19933;-67
2021/03/11 08:19:06;;;;;;;;;;;8.70;99.90;;;;;;5009375;28;19956;-66
2021/03/11 08:21:34;;;;;;;;;;;8.70;99.90;;;;;;5003977;28;19924;-66
2021/03/11 08:24:00;;;;;;;;;;;8.80;99.90;;;;;;4998492;28;20421;-66
2021/03/11 08:26:37;;;;;;;;;;;8.90;99.90;;;;;;4995667;28;19917;-68
2021/03/11 08:29:15;;;;;;;;;;;8.90;99.90;;;;;;5008356;28;19913;-67
2021/03/11 08:31:41;;;;;;;;;;;9.00;99.90;;;;;;5007906;28;19967;-67
2021/03/11 08:34:06;;;;;;;;;;;9.20;99.90;;;;;;5009037;28;19913;-70
2021/03/11 08:36:33;;;;;;;;;;;9.20;99.90;;;;;;5008165;28;20382;-70
2021/03/11 08:38:59;;;;;;;;;;;9.40;99.90;;;;;;5007555;28;20321;-69
2021/03/11 08:41:28;;;;;;;;;;;9.40;99.90;;;;;;5007312;28;19945;-69
2021/03/11 08:43:54;;;;;;;;;;;9.50;99.90;;;;;;5006260;28;19960;-70
2021/03/11 08:46:21;;;;;;;;;;;9.60;99.90;;;;;;5009145;28;19933;-69
2021/03/11 08:48:51;;;;;;;;;;;9.70;99.90;;;;;;5008539;28;19913;-68
2021/03/11 08:51:22;;;;;;;;;;;9.80;99.90;;;;;;5008196;28;19910;-69
2021/03/11 08:53:51;;;;;;;;;;;9.90;99.90;;;;;;5008326;28;19914;-69
2021/03/11 08:56:16;;;;;;;;;;;10.00;99.90;;;;;;5007663;28;19944;-68
2021/03/11 08:59:00;;;;;;;;;;;10.10;99.90;;;;;;5008483;28;19981;-67
2021/03/11 09:01:35;;;;;;;;;;;10.20;99.90;;;;;;5007327;28;20016;-69
2021/03/11 09:04:02;;;;;;;;;;;10.30;99.90;;;;;;5007171;28;20259;-69
2021/03/11 09:06:46;;;;;;;;;;;10.40;99.90;;;;;;5006664;28;19913;-70
2021/03/11 09:09:12;;;;;;;;;;;10.60;99.90;;;;;;5008940;28;19964;-70
2021/03/11 09:11:37;;;;;;;;;;;10.80;99.90;;;;;;5007293;28;19914;-70
2021/03/11 09:14:07;;;;;;;;;;;10.90;99.90;;;;;;5007507;28;19917;-70
2021/03/11 09:16:33;;;;;;;;;;;11.10;99.90;;;;;;5008547;28;19917;-68
2021/03/11 09:18:58;;;;;;;;;;;11.20;99.90;;;;;;5008243;28;19920;-70
2021/03/11 09:21:36;;;;;;;;;;;11.30;99.90;;;;;;5007261;28;20008;-68
2021/03/11 09:24:02;;;;;;;;;;;11.60;99.90;;;;;;5008238;28;19913;-69
2021/03/11 09:26:29;;;;;;;;;;;11.80;99.90;;;;;;5007712;28;19910;-69
2021/03/11 09:28:55;;;;;;;;;;;12.00;99.90;;;;;;5007603;28;20502;-69
2021/03/11 09:31:29;;;;;;;;;;;12.50;99.90;;;;;;5008083;28;20044;-70
2021/03/11 09:33:56;;;;;;;;;;;13.80;99.90;;;;;;5008469;28;19918;-69
2021/03/11 09:36:22;;;;;;;;;;;14.60;99.90;;;;;;5007979;28;19984;-69
2021/03/11 09:38:49;;;;;;;;;;;15.30;99.90;;;;;;5009760;28;19960;-69
2021/03/11 09:41:15;;;;;;;;;;;15.50;99.90;;;;;;5010920;28;20059;-70
2021/03/11 09:43:42;;;;;;;;;;;16.30;99.90;;;;;;5010731;28;19913;-68
2021/03/11 09:46:07;;;;;;;;;;;16.90;99.30;;;;;;5011677;28;19914;-68
2021/03/11 09:48:44;;;;;;;;;;;16.70;98.10;;;;;;5011840;28;20355;-69
2021/03/11 09:51:19;;;;;;;;;;;17.20;97.40;;;;;;5010558;28;19936;-68
2021/03/11 09:53:45;;;;;;;;;;;;;;;;;;5011248;28;20530;-69
2021/03/11 09:56:21;;;;;;;;;;;18.00;99.90;;;;;;5009752;28;19913;-69
2021/03/11 09:58:48;;;;;;;;;;;16.80;99.90;;;;;;5008894;28;20404;-69
2021/03/11 10:01:21;;;;;;;;;;;16.70;99.90;;;;;;5010315;28;19977;-69
2021/03/11 10:03:47;;;;;;;;;;;;;;;;;;5009873;28;20327;-69
2021/03/11 10:06:14;;;;;;;;;;;18.70;93.00;;;;;;5010658;28;20024;-68
2021/03/11 10:08:40;;;;;;;;;;;19.50;93.50;;;;;;5011259;28;19909;-69
2021/03/11 10:11:10;;;;;;;;;;;19.30;91.60;;;;;;5009897;28;19940;-69
2021/03/11 10:13:53;;;;;;;;;;;19.10;91.90;;;;;;5010088;28;20000;-69
2021/03/11 10:16:19;;;;;;;;;;;;;;;;;;5010659;28;20001;-69
2021/03/11 10:19:03;;;;;;;;;;;18.90;99.90;;;;;;5010850;28;20005;-70
2021/03/11 10:21:29;;;;;;;;;;;;;;;;;;5009794;28;19944;-68
2021/03/11 10:23:55;;;;;;;;;;;;;;;;;;5010370;28;20315;-69
2021/03/11 10:26:21;;;;;;;;;;;;;;;;;;5008473;28;19996;-69
2021/03/11 10:28:47;;;;;;;;;;;;;;;;;;5008382;28;19968;-69
2021/03/11 10:31:13;;;;;;;;;;;16.40;99.90;;;;;;5010116;28;19949;-69
2021/03/11 10:33:40;;;;;;;;;;;16.40;99.40;;;;;;5010276;28;19914;-69
2021/03/11 10:36:24;;;;;;;;;;;16.30;98.40;;;;;;5010543;28;19985;-68
2021/03/11 10:39:04;;;;;;;;;;;16.40;98.30;;;;;;5010579;28;19916;-69
2021/03/11 10:41:30;;;;;;;;;;;16.90;97.90;;;;;;5009618;28;19971;-69
2021/03/11 10:44:12;;;;;;;;;;;17.20;97.00;;;;;;5009359;28;19921;-69
2021/03/11 10:46:38;;;;;;;;;;;17.50;96.30;;;;;;5010551;28;19909;-68
2021/03/11 10:49:04;;;;;;;;;;;17.50;95.70;;;;;;5008936;28;20415;-69
2021/03/11 10:51:31;;;;;;;;;;;17.50;95.90;;;;;;5009625;28;19920;-69
2021/03/11 10:54:00;;;;;;;;;;;17.20;95.70;;;;;;5009278;28;19914;-68
2021/03/11 10:56:26;;;;;;;;;;;17.20;96.10;;;;;;5009808;28;19914;-68
2021/03/11 10:59:02;;;;;;;;;;;17.30;96.60;;;;;;5009481;28;19909;-68
2021/03/11 11:01:29;;;;;;;;;;;17.30;96.60;;;;;;5009352;28;20551;-68
2021/03/11 11:03:55;;;;;;;;;;;17.00;96.50;;;;;;5009548;28;19997;-70
2021/03/11 11:06:21;;;;;;;;;;;17.00;96.80;;;;;;5009614;28;20004;-68
2021/03/11 11:08:47;;;;;;;;;;;17.00;96.70;;;;;;5010484;28;19952;-68
2021/03/11 11:11:14;;;;;;;;;;;17.00;96.90;;;;;;5009233;28;20483;-69
2021/03/11 11:13:40;;;;;;;;;;;16.90;97.00;;;;;;5009518;28;19996;-68
2021/03/11 11:16:05;;;;;;;;;;;17.30;97.40;;;;;;5009757;28;20016;-70
2021/03/11 11:18:31;;;;;;;;;;;17.40;96.80;;;;;;5009945;28;19916;-69
2021/03/11 11:20:57;;;;;;;;;;;17.60;96.80;;;;;;5009489;28;19910;-71
2021/03/11 11:23:22;;;;;;;;;;;17.90;96.70;;;;;;5008283;28;20009;-69
2021/03/11 11:25:48;;;;;;;;;;;18.10;96.60;;;;;;5008974;28;19924;-69
2021/03/11 11:28:14;;;;;;;;;;;18.10;95.80;;;;;;5020665;28;20558;-68
2021/03/11 11:30:39;;;;;;;;;;;18.20;95.40;;;;;;5020721;28;20019;-67
2021/03/11 11:33:05;;;;;;;;;;;17.90;95.50;;;;;;5029311;28;20370;-68
2021/03/11 11:35:30;;;;;;;;;;;17.50;96.30;;;;;;5029626;28;19913;-68
2021/03/11 11:37:56;;;;;;;;;;;17.20;97.10;;;;;;5026830;28;20456;-68
2021/03/11 11:40:21;;;;;;;;;;;17.10;97.70;;;;;;5021358;28;19909;-68
2021/03/11 11:42:47;;;;;;;;;;;16.90;98.00;;;;;;5028103;28;19909;-69
2021/03/11 11:45:13;;;;;;;;;;;16.80;98.50;;;;;;5028926;28;19916;-68
2021/03/11 11:47:39;;;;;;;;;;;16.90;98.30;;;;;;5028927;28;19909;-68
2021/03/11 11:50:05;;;;;;;;;;;16.80;98.10;;;;;;5029640;28;19963;-69
2021/03/11 11:52:31;;;;;;;;;;;16.70;98.10;;;;;;5028326;28;20388;-70
2021/03/11 11:54:59;;;;;;;;;;;16.70;98.30;;;;;;5029952;28;19913;-69
2021/03/11 11:57:24;;;;;;;;;;;16.50;98.50;;;;;;5029208;28;19909;-69
2021/03/11 11:59:50;;;;;;;;;;;16.30;98.90;;;;;;5027582;28;20012;-67
2021/03/11 12:02:15;;;;;;;;;;;16.00;99.40;;;;;;5026516;28;19924;-68
2021/03/11 12:04:41;;;;;;;;;;;16.00;99.70;;;;;;5021017;28;19909;-69
2021/03/11 12:07:07;;;;;;;;;;;16.00;99.70;;;;;;5028992;28;20070;-67
2021/03/11 12:09:32;;;;;;;;;;;16.10;99.90;;;;;;5028670;28;20000;-67
2021/03/11 12:12:04;;;;;;;;;;;15.90;99.90;;;;;;5027499;28;19913;-68
2021/03/11 12:14:32;;;;;;;;;;;15.70;99.90;;;;;;5007410;28;19913;-69
2021/03/11 12:16:57;;;;;;;;;;;15.70;99.90;;;;;;5008914;28;19963;-69
2021/03/11 12:19:23;;;;;;;;;;;15.70;99.90;;;;;;5008749;28;20467;-68
2021/03/11 12:21:48;;;;;;;;;;;15.60;99.90;;;;;;5009007;28;19916;-69
2021/03/11 12:24:14;;;;;;;;;;;15.50;99.90;;;;;;5020868;28;20004;-68
2021/03/11 12:29:28;;;;;;;;;;;15.40;99.90;;;;;;5008857;28;19963;-67
2021/03/11 12:31:57;;;;;;;;;;;15.40;99.90;;;;;;5007838;28;20365;-68
2021/03/11 12:34:22;;;;;;;;;;;15.60;99.90;;;;;;5008719;28;19920;-68
2021/03/11 12:36:48;;;;;;;;;;;15.50;99.90;;;;;;5008855;28;19909;-68
2021/03/11 12:39:14;;;;;;;;;;;15.70;99.90;;;;;;5010172;28;19913;-69
2021/03/11 12:41:39;;;;;;;;;;;15.80;99.90;;;;;;5007849;28;20359;-69
2021/03/11 12:44:05;;;;;;;;;;;15.80;99.90;;;;;;5009162;28;19968;-68
2021/03/11 12:46:30;;;;;;;;;;;15.80;99.90;;;;;;5008817;28;20358;-68
2021/03/11 12:48:56;;;;;;;;;;;15.70;99.90;;;;;;5009024;28;19910;-68
2021/03/11 12:51:21;;;;;;;;;;;15.60;99.90;;;;;;5007818;28;19909;-70
2021/03/11 12:53:47;;;;;;;;;;;15.60;99.90;;;;;;5007079;28;19914;-67
2021/03/11 12:56:13;;;;;;;;;;;15.50;99.90;;;;;;5008654;28;19921;-68
2021/03/11 12:58:39;;;;;;;;;;;15.40;99.90;;;;;;5009187;28;20038;-67
2021/03/11 13:01:04;;;;;;;;;;;15.30;99.90;;;;;;5007780;28;20031;-68
2021/03/11 13:03:30;;;;;;;;;;;15.10;99.90;;;;;;5009546;28;19940;-68
2021/03/11 13:05:56;;;;;;;;;;;15.10;99.90;;;;;;5008693;28;19910;-68
2021/03/11 13:08:25;;;;;;;;;;;15.00;99.90;;;;;;5008418;28;19922;-68
2021/03/11 13:10:51;;;;;;;;;;;15.00;99.90;;;;;;5007333;28;19920;-68
2021/03/11 13:13:17;;;;;;;;;;;14.90;99.90;;;;;;5008147;28;19913;-67
2021/03/11 13:15:42;;;;;;;;;;;14.90;99.90;;;;;;5010290;28;20684;-69
2021/03/11 13:18:08;;;;;;;;;;;14.90;99.90;;;;;;5011641;28;19920;-68
2021/03/11 13:20:34;;;;;;;;;;;14.90;99.90;;;;;;5011728;28;19937;-68
2021/03/11 13:23:00;;;;;;;;;;;14.90;99.90;;;;;;5011571;28;19910;-68
2021/03/11 13:25:25;;;;;;;;;;;14.90;99.90;;;;;;5012457;28;20423;-69
2021/03/11 13:27:51;;;;;;;;;;;14.90;99.90;;;;;;5010957;28;20008;-69
2021/03/11 13:30:16;;;;;;;;;;;14.90;99.90;;;;;;5011658;28;19945;-69
2021/03/11 13:32:42;;;;;;;;;;;15.00;99.90;;;;;;5010988;28;20402;-68
2021/03/11 13:35:09;;;;;;;;;;;14.90;99.90;;;;;;5012299;28;20370;-68
2021/03/11 13:37:34;;;;;;;;;;;14.90;99.90;;;;;;5011293;28;19910;-68
2021/03/11 13:40:00;;;;;;;;;;;14.80;99.90;;;;;;5023085;28;19947;-68
2021/03/11 13:42:27;;;;;;;;;;;14.60;99.90;;;;;;5030645;28;20012;-68
2021/03/11 13:44:54;;;;;;;;;;;14.60;99.90;;;;;;5016699;28;19939;-68
2021/03/11 13:47:20;;;;;;;;;;;14.60;99.90;;;;;;5023924;28;20015;-68
2021/03/11 13:49:45;;;;;;;;;;;14.70;99.90;;;;;;5031511;28;20393;-68
2021/03/11 13:52:11;;;;;;;;;;;14.80;99.90;;;;;;5029917;28;19913;-69
2021/03/11 13:54:36;;;;;;;;;;;15.00;99.90;;;;;;5020128;28;20484;-69
2021/03/11 13:57:03;;;;;;;;;;;15.10;99.90;;;;;;5031149;28;20385;-68
2021/03/11 13:59:28;;;;;;;;;;;15.20;99.90;;;;;;5030453;28;20346;-68
2021/03/11 14:01:54;;;;;;;;;;;15.30;99.90;;;;;;5030169;28;20023;-69
2021/03/11 14:04:20;;;;;;;;;;;15.40;99.90;;;;;;5031505;28;20227;-69
2021/03/11 14:06:45;;;;;;;;;;;15.30;99.90;;;;;;5030724;28;20278;-69
2021/03/11 14:09:11;;;;;;;;;;;15.40;99.90;;;;;;5030969;28;19920;-68
2021/03/11 14:11:36;;;;;;;;;;;15.40;99.90;;;;;;5029823;28;20392;-70
2021/03/11 14:14:02;;;;;;;;;;;15.50;99.90;;;;;;5029645;28;20023;-70
2021/03/11 14:16:27;;;;;;;;;;;15.50;99.90;;;;;;5031233;28;19909;-70
2021/03/11 14:18:53;;;;;;;;;;;15.50;99.90;;;;;;5031282;28;19949;-69
2021/03/11 14:21:19;;;;;;;;;;;15.40;99.90;;;;;;5029891;28;20298;-70
2021/03/11 14:23:45;;;;;;;;;;;15.40;99.90;;;;;;5030079;28;20146;-69
2021/03/11 14:26:10;;;;;;;;;;;15.40;99.90;;;;;;5028751;28;20011;-69
2021/03/11 14:28:36;;;;;;;;;;;15.30;99.90;;;;;;5014351;28;20021;-71
2021/03/11 14:31:01;;;;;;;;;;;15.10;99.90;;;;;;5009994;28;20328;-64